createdAt,value
2022-11-09T00:01:03.768Z,28.10
2022-11-09T00:03:32.025Z,28.10
2022-11-09T00:06:01.965Z,27.83
2022-11-09T00:08:30.324Z,28.03
2022-11-09T00:11:04.081Z,27.43
2022-11-09T00:13:32.488Z,27.50
2022-11-09T00:16:00.568Z,27.00
2022-11-09T00:18:28.601Z,27.60
2022-11-09T00:20:57.209Z,27.97
2022-11-09T00:23:26.607Z,27.37
2022-11-09T00:25:54.684Z,27.93
2022-11-09T00:28:22.720Z,28.73
2022-11-09T00:30:50.798Z,26.93
2022-11-09T00:33:19.179Z,27.53
2022-11-09T00:35:47.455Z,27.40
2022-11-09T00:38:15.520Z,26.63
2022-11-09T00:40:44.952Z,27.03
2022-11-09T00:43:13.018Z,26.23
2022-11-09T00:45:41.381Z,26.97
2022-11-09T00:48:09.775Z,26.27
2022-11-09T00:50:37.856Z,24.93
2022-11-09T00:53:05.901Z,25.67
2022-11-09T00:55:33.985Z,25.13
2022-11-09T00:58:03.395Z,23.73
2022-11-09T01:00:31.416Z,24.27
2022-11-09T01:02:59.437Z,24.67
2022-11-09T01:05:27.523Z,25.10
2022-11-09T01:07:55.412Z,24.73
2022-11-09T01:10:23.503Z,26.07
2022-11-09T01:12:51.502Z,25.40
2022-11-09T01:15:20.948Z,26.00
2022-11-09T01:17:49.028Z,25.70
2022-11-09T01:20:17.468Z,25.27
2022-11-09T01:22:45.586Z,26.17
2022-11-09T01:25:13.618Z,27.43
2022-11-09T01:27:41.691Z,27.13
2022-11-09T01:30:10.299Z,27.53
2022-11-09T01:32:39.670Z,26.97
2022-11-09T01:35:08.264Z,27.43
2022-11-09T01:37:36.318Z,28.30
2022-11-09T01:40:05.199Z,29.87
2022-11-09T01:42:37.882Z,29.27
2022-11-09T01:45:27.666Z,29.63
2022-11-09T01:48:01.928Z,31.33
2022-11-09T01:50:35.756Z,32.30
2022-11-09T01:53:07.695Z,32.80
2022-11-09T01:55:36.393Z,34.27
2022-11-09T01:58:09.180Z,35.83
2022-11-09T02:00:39.081Z,37.23
2022-11-09T02:03:16.511Z,39.87
2022-11-09T02:05:45.760Z,38.30
2022-11-09T02:08:18.045Z,41.53
2022-11-09T02:10:51.717Z,42.90
2022-11-09T02:13:22.554Z,42.27
2022-11-09T02:15:51.867Z,43.37
2022-11-09T02:18:21.639Z,43.87
2022-11-09T02:20:53.277Z,46.53
2022-11-09T02:23:22.317Z,45.47
2022-11-09T02:25:54.020Z,46.30
2022-11-09T02:28:22.617Z,45.63
2022-11-09T02:30:54.912Z,46.63
2022-11-09T02:33:23.854Z,45.07
2022-11-09T02:35:53.288Z,44.77
2022-11-09T02:38:21.345Z,43.67
2022-11-09T02:40:52.449Z,43.90
2022-11-09T02:43:21.359Z,43.60
2022-11-09T02:45:49.724Z,43.80
2022-11-09T02:48:17.992Z,43.90
2022-11-09T02:50:46.052Z,43.47
2022-11-09T02:53:15.481Z,44.37
2022-11-09T02:55:43.520Z,42.60
2022-11-09T02:58:11.617Z,43.13
2022-11-09T03:00:39.672Z,43.37
2022-11-09T03:03:07.851Z,42.23
2022-11-09T03:05:35.920Z,40.87
2022-11-09T03:08:03.856Z,41.60
2022-11-09T03:10:33.226Z,39.70
2022-11-09T03:13:01.431Z,39.67
2022-11-09T03:15:29.427Z,37.10
2022-11-09T03:17:58.047Z,37.13
2022-11-09T03:20:26.102Z,36.03
2022-11-09T03:22:58.667Z,36.30
2022-11-09T03:25:27.085Z,37.50
2022-11-09T03:28:00.291Z,36.17
2022-11-09T03:30:28.940Z,37.00
2022-11-09T03:33:00.673Z,35.37
2022-11-09T03:35:30.879Z,35.03
2022-11-09T03:37:58.943Z,34.87
2022-11-09T03:40:27.067Z,33.90
2022-11-09T03:42:55.140Z,35.13
2022-11-09T03:45:24.826Z,35.50
2022-11-09T03:47:54.856Z,36.67
2022-11-09T03:50:22.915Z,35.30
2022-11-09T03:52:51.028Z,35.80
2022-11-09T03:55:19.451Z,35.67
2022-11-09T03:57:47.861Z,34.73
2022-11-09T04:00:21.634Z,35.17
2022-11-09T04:02:51.401Z,34.60
2022-11-09T04:05:20.148Z,35.03
2022-11-09T04:07:49.315Z,34.83
2022-11-09T04:10:17.965Z,34.07
2022-11-09T04:12:46.690Z,34.50
2022-11-09T04:15:15.409Z,34.53
2022-11-09T04:17:44.715Z,34.07
2022-11-09T04:20:14.203Z,34.73
2022-11-09T04:22:42.225Z,34.43
2022-11-09T04:25:10.432Z,33.83
2022-11-09T04:27:38.483Z,34.43
2022-11-09T04:30:07.576Z,35.10
2022-11-09T04:32:35.616Z,32.67
2022-11-09T04:35:04.184Z,32.93
2022-11-09T04:37:33.604Z,33.87
2022-11-09T04:40:01.682Z,34.43
2022-11-09T04:42:29.703Z,34.63
2022-11-09T04:44:57.728Z,35.27
2022-11-09T04:47:25.804Z,35.00
2022-11-09T04:49:53.858Z,37.07
2022-11-09T04:52:21.966Z,35.50
2022-11-09T04:54:51.346Z,37.17
2022-11-09T04:57:19.440Z,36.33
2022-11-09T04:59:47.483Z,39.13
2022-11-09T05:02:15.661Z,39.73
2022-11-09T05:04:44.196Z,38.53
2022-11-09T05:07:12.166Z,39.47
2022-11-09T05:09:40.342Z,39.77
2022-11-09T05:12:09.991Z,40.13
2022-11-09T05:14:38.866Z,40.60
2022-11-09T05:17:08.748Z,41.93
2022-11-09T05:19:37.038Z,40.90
2022-11-09T05:22:19.015Z,41.37
2022-11-09T05:24:47.068Z,42.67
2022-11-09T05:27:16.512Z,43.30
2022-11-09T05:29:44.669Z,42.87
2022-11-09T05:32:12.705Z,42.13
2022-11-09T05:34:40.753Z,41.43
2022-11-09T05:37:08.858Z,41.87
2022-11-09T05:39:36.922Z,41.47
2022-11-09T05:42:05.108Z,39.80
2022-11-09T05:44:34.574Z,42.53
2022-11-09T05:47:02.661Z,44.50
2022-11-09T05:49:30.814Z,44.77
2022-11-09T05:51:58.930Z,41.90
2022-11-09T05:54:26.973Z,46.37
2022-11-09T05:56:55.107Z,42.73
2022-11-09T05:59:23.168Z,44.93
2022-11-09T06:01:52.601Z,42.80
2022-11-09T06:04:20.788Z,44.40
2022-11-09T06:06:48.941Z,44.53
2022-11-09T06:09:17.104Z,44.57
2022-11-09T06:11:45.421Z,45.50
2022-11-09T06:14:13.755Z,47.67
2022-11-09T06:16:41.797Z,48.17
2022-11-09T06:19:11.444Z,48.80
2022-11-09T06:21:39.468Z,48.70
2022-11-09T06:24:08.274Z,50.70
2022-11-09T06:26:36.361Z,49.20
2022-11-09T06:29:04.832Z,50.47
2022-11-09T06:31:32.983Z,51.23
2022-11-09T06:34:01.198Z,49.60
2022-11-09T06:36:30.585Z,51.97
2022-11-09T06:38:58.650Z,53.77
2022-11-09T06:41:26.720Z,52.30
2022-11-09T06:43:54.785Z,51.93
2022-11-09T06:46:22.841Z,51.77
2022-11-09T06:48:54.498Z,50.70
2022-11-09T06:51:22.833Z,50.20
2022-11-09T06:53:52.308Z,48.40
2022-11-09T06:56:20.526Z,47.77
2022-11-09T06:58:49.122Z,47.90
2022-11-09T07:01:19.147Z,46.63
2022-11-09T07:03:47.258Z,47.90
2022-11-09T07:06:15.466Z,48.67
2022-11-09T07:08:43.496Z,48.33
2022-11-09T07:11:16.182Z,46.60
2022-11-09T07:13:44.317Z,43.73
2022-11-09T07:16:12.951Z,44.20
2022-11-09T07:18:41.164Z,46.27
2022-11-09T07:21:14.023Z,46.80
2022-11-09T07:23:43.414Z,48.30
2022-11-09T07:26:12.847Z,48.03
2022-11-09T07:28:41.329Z,46.30
2022-11-09T07:31:10.224Z,47.73
2022-11-09T07:33:38.658Z,47.07
2022-11-09T07:36:07.839Z,48.77
2022-11-09T07:38:35.932Z,48.30
2022-11-09T07:41:04.163Z,45.97
2022-11-09T07:43:33.623Z,47.30
2022-11-09T07:46:04.753Z,44.77
2022-11-09T07:48:32.891Z,45.27
2022-11-09T07:51:02.521Z,46.77
2022-11-09T07:53:30.637Z,47.20
2022-11-09T07:55:59.160Z,47.83
2022-11-09T07:58:27.421Z,45.70
2022-11-09T08:00:58.107Z,46.00
2022-11-09T08:03:26.967Z,43.93
2022-11-09T08:05:57.308Z,46.73
2022-11-09T08:08:25.456Z,44.57
2022-11-09T08:10:53.645Z,44.83
2022-11-09T08:13:22.045Z,45.23
2022-11-09T08:15:50.421Z,42.83
2022-11-09T08:18:22.855Z,43.87
2022-11-09T08:20:51.242Z,42.60
2022-11-09T08:23:21.845Z,41.77
2022-11-09T08:25:50.876Z,42.00
2022-11-09T08:28:19.316Z,40.07
2022-11-09T08:30:55.882Z,37.77
2022-11-09T08:33:25.800Z,38.43
2022-11-09T08:35:53.961Z,36.13
2022-11-09T08:38:22.586Z,33.93
2022-11-09T08:40:50.878Z,32.03
2022-11-09T08:43:20.003Z,31.30
2022-11-09T08:45:49.141Z,30.20
2022-11-09T08:48:17.356Z,29.40
2022-11-09T08:50:46.987Z,27.73
2022-11-09T08:53:15.080Z,27.57
2022-11-09T08:55:48.368Z,27.03
2022-11-09T08:58:18.052Z,25.90
2022-11-09T09:00:46.681Z,25.60
2022-11-09T09:03:14.779Z,24.50
2022-11-09T09:05:42.977Z,23.03
2022-11-09T09:08:15.330Z,22.60
2022-11-09T09:10:43.481Z,22.60
2022-11-09T09:13:11.587Z,21.83
2022-11-09T09:15:39.716Z,21.67
2022-11-09T09:18:08.107Z,21.60
2022-11-09T09:20:36.251Z,22.00
2022-11-09T09:23:04.545Z,21.83
2022-11-09T09:25:34.067Z,23.87
2022-11-09T09:28:02.205Z,20.83
2022-11-09T09:30:30.339Z,20.70
2022-11-09T09:33:01.633Z,19.40
2022-11-09T09:35:30.107Z,20.60
2022-11-09T09:37:58.582Z,19.50
2022-11-09T09:40:32.748Z,19.50
2022-11-09T09:43:02.196Z,18.93
2022-11-09T09:45:34.449Z,18.93
2022-11-09T09:48:12.684Z,18.63
2022-11-09T09:50:49.920Z,18.63
2022-11-09T09:53:25.105Z,19.00
2022-11-09T09:55:57.111Z,19.47
2022-11-09T09:58:28.883Z,18.23
2022-11-09T10:01:00.457Z,18.30
2022-11-09T10:03:28.597Z,18.27
2022-11-09T10:06:02.959Z,18.57
2022-11-09T10:08:48.225Z,18.10
2022-11-09T10:11:27.139Z,17.53
2022-11-09T10:14:27.842Z,18.10
2022-11-09T10:17:05.507Z,17.90
2022-11-09T10:19:46.628Z,17.87
2022-11-09T10:22:22.416Z,17.27
2022-11-09T10:25:20.871Z,17.20
2022-11-09T10:27:52.590Z,16.67
2022-11-09T10:30:24.280Z,18.77
2022-11-09T10:32:56.569Z,17.17
2022-11-09T10:35:30.415Z,16.70
2022-11-09T10:37:58.499Z,16.97
2022-11-09T10:40:31.042Z,17.00
2022-11-09T10:43:01.843Z,16.97
2022-11-09T10:45:33.499Z,17.00
2022-11-09T10:48:02.923Z,16.37
2022-11-09T10:50:34.985Z,16.70
2022-11-09T10:53:11.824Z,17.23
2022-11-09T10:55:40.031Z,17.30
2022-11-09T10:58:23.092Z,17.00
2022-11-09T11:01:05.234Z,16.90
2022-11-09T11:03:36.667Z,18.10
2022-11-09T11:06:06.735Z,16.60
2022-11-09T11:08:41.122Z,16.50
2022-11-09T11:11:33.636Z,17.07
2022-11-09T11:14:15.834Z,17.00
2022-11-09T11:16:48.380Z,17.70
2022-11-09T11:19:35.211Z,17.67
2022-11-09T11:22:22.779Z,16.40
2022-11-09T11:24:59.383Z,16.67
2022-11-09T11:27:34.127Z,16.73
2022-11-09T11:30:07.570Z,16.80
2022-11-09T11:32:36.992Z,16.33
2022-11-09T11:35:06.535Z,16.57
2022-11-09T11:37:50.650Z,18.03
2022-11-09T11:40:28.186Z,17.93
2022-11-09T11:43:23.778Z,17.10
2022-11-09T11:46:02.405Z,16.80
2022-11-09T11:48:54.410Z,16.47
2022-11-09T11:51:32.305Z,16.77
2022-11-09T11:54:10.483Z,16.37
2022-11-09T11:56:44.399Z,16.73
2022-11-09T11:59:38.875Z,17.50
2022-11-09T12:02:28.424Z,17.77
2022-11-09T12:05:32.969Z,17.50
2022-11-09T12:08:09.207Z,17.80
2022-11-09T12:10:49.511Z,19.03
2022-11-09T12:13:38.820Z,17.80
2022-11-09T12:16:13.029Z,18.03
2022-11-09T12:18:53.525Z,17.77
2022-11-09T12:21:28.713Z,18.53
2022-11-09T12:24:14.361Z,17.10
2022-11-09T12:27:25.634Z,18.83
2022-11-09T12:29:57.826Z,17.10
2022-11-09T12:32:32.626Z,17.90
2022-11-09T12:35:16.487Z,16.80
2022-11-09T12:37:51.618Z,18.07
2022-11-09T12:40:24.911Z,17.30
2022-11-09T12:43:00.538Z,17.17
2022-11-09T12:45:33.323Z,18.10
2022-11-09T12:48:07.350Z,16.70
2022-11-09T12:50:35.620Z,17.77
2022-11-09T12:53:04.785Z,17.40
2022-11-09T12:55:44.448Z,17.00
2022-11-09T12:58:23.549Z,17.10
2022-11-09T13:00:54.801Z,17.00
2022-11-09T13:03:25.843Z,16.87
2022-11-09T13:06:12.567Z,19.00
2022-11-09T13:08:42.260Z,17.47
2022-11-09T13:11:19.982Z,17.00
2022-11-09T13:13:48.085Z,17.00
2022-11-09T13:16:36.346Z,16.77
2022-11-09T13:19:04.627Z,17.10
2022-11-09T13:21:38.600Z,16.40
2022-11-09T13:24:54.895Z,18.53
2022-11-09T13:27:40.515Z,16.73
2022-11-09T13:30:40.747Z,16.63
2022-11-09T13:33:20.969Z,17.10
2022-11-09T13:36:14.614Z,16.50
2022-11-09T13:38:43.069Z,16.50
2022-11-09T13:41:43.786Z,16.80
2022-11-09T13:44:34.470Z,16.97
2022-11-09T13:47:06.428Z,16.70
2022-11-09T13:49:44.844Z,16.40
2022-11-09T13:52:51.514Z,17.10
2022-11-09T13:55:37.132Z,17.20
2022-11-09T13:58:14.152Z,16.47
2022-11-09T14:00:48.263Z,16.80
2022-11-09T14:03:22.573Z,16.70
2022-11-09T14:05:53.702Z,17.20
2022-11-09T14:08:24.831Z,16.93
2022-11-09T14:11:34.063Z,16.90
2022-11-09T14:14:21.205Z,17.83
2022-11-09T14:17:00.441Z,17.00
2022-11-09T14:19:36.049Z,17.00
2022-11-09T14:22:04.016Z,16.80
2022-11-09T14:24:33.625Z,16.90
2022-11-09T14:27:03.681Z,16.53
2022-11-09T14:29:33.173Z,16.97
2022-11-09T14:32:04.106Z,17.27
2022-11-09T14:34:32.000Z,17.27
2022-11-09T14:37:04.731Z,17.07
2022-11-09T14:39:35.362Z,16.93
2022-11-09T14:42:03.324Z,17.30
2022-11-09T14:44:35.775Z,17.33
2022-11-09T14:47:06.875Z,17.20
2022-11-09T14:49:34.908Z,16.80
2022-11-09T14:52:03.758Z,16.80
2022-11-09T14:54:32.017Z,16.77
2022-11-09T14:57:02.101Z,17.10
2022-11-09T14:59:32.950Z,17.23
2022-11-09T15:02:05.758Z,17.10
2022-11-09T15:04:52.020Z,17.17
2022-11-09T15:07:22.650Z,17.87
2022-11-09T15:09:54.032Z,17.27
2022-11-09T15:12:22.971Z,16.57
2022-11-09T15:14:53.430Z,18.30
2022-11-09T15:17:26.648Z,17.90
2022-11-09T15:19:56.893Z,17.20
2022-11-09T15:22:49.200Z,16.80
2022-11-09T15:25:24.094Z,17.00
2022-11-09T15:28:01.784Z,18.40
2022-11-09T15:30:35.974Z,17.53
2022-11-09T15:33:24.337Z,17.30
2022-11-09T15:35:55.341Z,17.93
2022-11-09T15:38:35.402Z,17.50
2022-11-09T15:41:04.884Z,16.57
2022-11-09T15:43:33.068Z,17.70
2022-11-09T15:46:02.218Z,17.47
2022-11-09T15:48:32.396Z,18.17
2022-11-09T15:51:01.033Z,17.97
2022-11-09T15:53:29.238Z,18.80
2022-11-09T15:55:57.470Z,17.87
2022-11-09T15:58:25.690Z,17.80
2022-11-09T16:00:54.118Z,17.83
2022-11-09T16:03:22.273Z,18.30
2022-11-09T16:05:51.738Z,18.13
2022-11-09T16:08:20.102Z,18.40
2022-11-09T16:10:48.375Z,18.67
2022-11-09T16:13:16.393Z,19.30
2022-11-09T16:15:44.526Z,19.70
2022-11-09T16:18:12.582Z,19.87
2022-11-09T16:20:41.174Z,22.23
2022-11-09T16:23:10.630Z,23.00
2022-11-09T16:25:38.741Z,22.77
2022-11-09T16:28:07.118Z,23.27
2022-11-09T16:30:35.338Z,24.50
2022-11-09T16:33:03.480Z,24.10
2022-11-09T16:35:31.629Z,24.70
2022-11-09T16:38:00.305Z,23.63
2022-11-09T16:40:31.745Z,24.37
2022-11-09T16:43:01.803Z,24.60
2022-11-09T16:45:33.436Z,25.03
2022-11-09T16:48:05.076Z,31.07
2022-11-09T16:50:33.158Z,24.70
2022-11-09T16:53:01.270Z,25.00
2022-11-09T16:55:30.679Z,24.37
2022-11-09T16:57:58.806Z,24.60
2022-11-09T17:00:42.518Z,25.03
2022-11-09T17:03:15.831Z,25.87
2022-11-09T17:05:44.358Z,25.50
2022-11-09T17:08:13.043Z,24.50
2022-11-09T17:10:47.063Z,25.10
2022-11-09T17:13:15.484Z,24.20
2022-11-09T17:15:44.952Z,23.63
2022-11-09T17:18:13.289Z,24.60
2022-11-09T17:20:44.648Z,24.20
2022-11-09T17:23:13.114Z,25.20
2022-11-09T17:25:41.889Z,23.73
2022-11-09T17:28:11.418Z,24.63
2022-11-09T17:30:42.140Z,23.48
2022-11-09T17:33:10.254Z,24.00
2022-11-09T17:35:38.354Z,23.03
2022-11-09T17:38:06.578Z,23.10
2022-11-09T17:40:34.750Z,22.90
2022-11-09T17:43:02.895Z,22.63
2022-11-09T17:45:32.814Z,22.73
2022-11-09T17:48:01.797Z,23.10
2022-11-09T17:50:29.913Z,23.27
2022-11-09T17:52:58.068Z,24.17
2022-11-09T17:55:26.155Z,26.60
2022-11-09T17:57:54.320Z,24.30
2022-11-09T18:00:23.445Z,23.87
2022-11-09T18:02:55.574Z,23.53
2022-11-09T18:05:23.758Z,24.17
2022-11-09T18:07:51.670Z,23.53
2022-11-09T18:10:19.875Z,24.23
2022-11-09T18:12:48.116Z,23.43
2022-11-09T18:15:16.450Z,23.53
2022-11-09T18:17:44.819Z,23.97
2022-11-09T18:20:14.746Z,24.07
2022-11-09T18:22:42.891Z,24.37
2022-11-09T18:25:11.836Z,24.10
2022-11-09T18:27:39.955Z,24.43
2022-11-09T18:30:09.440Z,25.73
2022-11-09T18:32:37.651Z,24.90
2022-11-09T18:35:06.786Z,24.43
2022-11-09T18:37:37.239Z,25.97
2022-11-09T18:40:06.095Z,26.13
2022-11-09T18:42:34.561Z,25.87
2022-11-09T18:45:02.680Z,26.20
2022-11-09T18:47:30.836Z,25.30
2022-11-09T18:49:58.958Z,24.80
2022-11-09T18:52:27.060Z,26.07
2022-11-09T18:54:57.049Z,26.27
2022-11-09T18:57:25.210Z,28.50
2022-11-09T18:59:53.342Z,30.70
2022-11-09T19:02:21.623Z,31.13
2022-11-09T19:04:49.880Z,31.47
2022-11-09T19:07:18.289Z,31.47
2022-11-09T19:09:46.346Z,33.70
2022-11-09T19:12:16.044Z,34.37
2022-11-09T19:14:44.738Z,32.97
2022-11-09T19:17:14.643Z,32.80
2022-11-09T19:19:43.321Z,35.33
2022-11-09T19:22:16.909Z,34.67
2022-11-09T19:24:46.345Z,34.43
2022-11-09T19:27:15.813Z,34.57
2022-11-09T19:29:43.949Z,37.20
2022-11-09T19:32:12.083Z,40.03
2022-11-09T19:34:42.585Z,45.03
2022-11-09T19:37:10.987Z,45.63
2022-11-09T19:39:43.030Z,48.97
2022-11-09T19:42:11.774Z,48.07
2022-11-09T19:44:41.234Z,50.20
2022-11-09T19:47:09.447Z,49.70
2022-11-09T19:49:37.694Z,49.83
2022-11-09T19:52:06.208Z,48.03
2022-11-09T19:54:34.279Z,50.37
2022-11-09T19:57:02.406Z,48.97
2022-11-09T19:59:30.511Z,51.07
2022-11-09T20:02:00.068Z,50.83
2022-11-09T20:04:28.325Z,49.10
2022-11-09T20:06:56.575Z,51.20
2022-11-09T20:09:24.662Z,49.40
2022-11-09T20:12:11.690Z,49.47
2022-11-09T20:14:39.746Z,49.77
2022-11-09T20:17:09.229Z,49.07
2022-11-09T20:19:37.353Z,50.60
2022-11-09T20:22:05.870Z,51.63
2022-11-09T20:24:33.977Z,52.07
2022-11-09T20:27:02.043Z,52.47
2022-11-09T20:29:30.073Z,52.80
2022-11-09T20:31:58.216Z,51.07
2022-11-09T20:34:29.625Z,51.80
2022-11-09T20:36:57.750Z,52.90
2022-11-09T20:39:25.859Z,52.37
2022-11-09T20:41:53.980Z,52.77
2022-11-09T20:44:22.006Z,54.30
2022-11-09T20:46:50.079Z,56.47
2022-11-09T20:49:18.221Z,54.53
2022-11-09T20:51:47.587Z,56.67
2022-11-09T20:54:15.619Z,55.57
2022-11-09T20:56:44.308Z,54.53
2022-11-09T20:59:12.496Z,54.43
2022-11-09T21:01:40.805Z,54.67
2022-11-09T21:04:08.862Z,55.17
2022-11-09T21:06:37.017Z,58.07
2022-11-09T21:09:06.581Z,57.00
2022-11-09T21:11:57.298Z,56.57
2022-11-09T21:14:25.564Z,57.00
2022-11-09T21:16:53.667Z,56.30
2022-11-09T21:19:21.758Z,60.47
2022-11-09T21:21:49.805Z,59.70
2022-11-09T21:24:36.658Z,61.90
2022-11-09T21:27:21.921Z,60.80
2022-11-09T21:29:52.721Z,62.17
2022-11-09T21:32:21.945Z,63.80
2022-11-09T21:34:50.315Z,63.83
2022-11-09T21:37:18.607Z,61.63
2022-11-09T21:39:48.097Z,60.00
2022-11-09T21:42:16.269Z,61.27
2022-11-09T21:44:44.350Z,59.73
2022-11-09T21:47:12.435Z,62.23
2022-11-09T21:49:40.660Z,60.87
2022-11-09T21:52:08.655Z,61.20
2022-11-09T21:54:36.763Z,62.17
2022-11-09T21:57:06.392Z,62.13
2022-11-09T21:59:34.448Z,61.80
2022-11-09T22:02:02.499Z,59.83
2022-11-09T22:04:30.545Z,59.93
2022-11-09T22:06:58.688Z,59.73
2022-11-09T22:09:29.806Z,59.60
2022-11-09T22:12:27.466Z,60.90
2022-11-09T22:15:12.868Z,63.20
2022-11-09T22:17:41.026Z,63.20
2022-11-09T22:20:27.695Z,66.30
2022-11-09T22:22:55.861Z,68.00
2022-11-09T22:25:23.952Z,68.77
2022-11-09T22:27:53.381Z,69.40
2022-11-09T22:30:21.558Z,67.20
2022-11-09T22:32:49.561Z,64.37
2022-11-09T22:35:17.786Z,68.97
2022-11-09T22:37:45.863Z,68.47
2022-11-09T22:40:14.117Z,68.00
2022-11-09T22:42:42.182Z,67.60
2022-11-09T22:45:11.990Z,70.07
2022-11-09T22:47:40.063Z,67.57
2022-11-09T22:50:08.642Z,69.50
2022-11-09T22:52:36.741Z,70.63
2022-11-09T22:55:05.090Z,69.20
2022-11-09T22:57:33.405Z,71.60
2022-11-09T23:00:01.473Z,70.17
2022-11-09T23:02:31.269Z,69.73
2022-11-09T23:04:59.379Z,69.77
2022-11-09T23:07:27.264Z,67.70
2022-11-09T23:09:55.284Z,68.50
2022-11-09T23:12:23.340Z,68.77
2022-11-09T23:15:06.798Z,71.90
2022-11-09T23:17:54.561Z,71.10
2022-11-09T23:20:23.049Z,69.90
2022-11-09T23:22:51.090Z,72.13
2022-11-09T23:25:36.676Z,70.60
2022-11-09T23:28:05.355Z,73.17
2022-11-09T23:30:33.414Z,73.87
2022-11-09T23:33:03.594Z,73.57
2022-11-09T23:35:31.627Z,77.03
2022-11-09T23:38:00.356Z,75.87
2022-11-09T23:40:28.945Z,78.03
2022-11-09T23:43:01.096Z,76.23
2022-11-09T23:45:29.473Z,76.57
2022-11-09T23:47:58.136Z,79.73
2022-11-09T23:50:27.997Z,75.43
2022-11-09T23:52:57.226Z,76.60
2022-11-09T23:55:25.672Z,74.67
2022-11-09T23:57:53.704Z,75.57
